createdAt,value
2022-08-22T00:02:04.382Z,17.06
2022-08-22T00:07:12.218Z,17.02
2022-08-22T00:12:20.087Z,17.0
2022-08-22T00:17:26.624Z,16.96
2022-08-22T00:22:34.568Z,16.9
2022-08-22T00:27:42.623Z,16.89
2022-08-22T00:32:50.312Z,16.84
2022-08-22T00:37:57.978Z,16.82
2022-08-22T00:44:36.700Z,16.79
2022-08-22T00:49:43.374Z,16.76
2022-08-22T00:54:51.100Z,16.76
2022-08-22T00:59:58.785Z,16.76
2022-08-22T01:05:06.840Z,16.73
2022-08-22T01:10:15.260Z,16.68
2022-08-22T01:15:23.175Z,16.64
2022-08-22T01:20:31.282Z,16.58
2022-08-22T01:25:37.845Z,16.56
2022-08-22T01:30:44.850Z,16.51
2022-08-22T01:35:53.043Z,16.48
2022-08-22T01:41:01.821Z,16.43
2022-08-22T01:46:10.855Z,16.38
2022-08-22T01:51:19.129Z,16.33
2022-08-22T01:56:27.164Z,16.28
2022-08-22T02:01:34.461Z,16.24
2022-08-22T02:06:42.363Z,16.21
2022-08-22T02:11:49.988Z,16.19
2022-08-22T02:16:58.325Z,16.17
2022-08-22T02:22:05.678Z,16.16
2022-08-22T02:27:13.522Z,16.15
2022-08-22T02:32:20.694Z,16.14
2022-08-22T02:37:29.045Z,16.12
2022-08-22T02:42:37.526Z,16.09
2022-08-22T02:47:45.302Z,16.08
2022-08-22T02:52:53.525Z,16.1
2022-08-22T02:58:01.775Z,16.11
2022-08-22T03:03:09.589Z,16.09
2022-08-22T03:08:17.522Z,16.09
2022-08-22T03:13:33.576Z,16.07
2022-08-22T03:18:42.005Z,16.06
2022-08-22T03:23:48.695Z,16.04
2022-08-22T03:30:28.076Z,16.08
2022-08-22T03:35:34.005Z,16.08
2022-08-22T03:40:41.636Z,16.08
2022-08-22T03:45:49.508Z,16.03
2022-08-22T03:50:57.531Z,15.98
2022-08-22T03:56:12.397Z,15.96
2022-08-22T04:01:19.831Z,15.94
2022-08-22T04:06:26.945Z,15.92
2022-08-22T04:11:34.617Z,15.88
2022-08-22T04:16:42.519Z,15.85
2022-08-22T04:21:49.659Z,15.82
2022-08-22T04:26:57.652Z,15.75
2022-08-22T04:32:06.121Z,15.72
2022-08-22T04:37:13.217Z,15.7
2022-08-22T04:42:20.723Z,15.69
2022-08-22T04:47:28.217Z,15.65
2022-08-22T04:52:35.991Z,15.59
2022-08-22T04:57:43.989Z,15.58
2022-08-22T05:02:52.316Z,15.56
2022-08-22T05:08:00.393Z,15.54
2022-08-22T05:13:08.887Z,15.55
2022-08-22T05:18:17.142Z,15.57
2022-08-22T05:23:24.422Z,15.55
2022-08-22T05:28:32.621Z,15.54
2022-08-22T05:33:41.210Z,15.52
2022-08-22T05:38:49.402Z,15.53
2022-08-22T05:43:57.526Z,15.52
2022-08-22T05:49:06.003Z,15.52
2022-08-22T05:54:13.340Z,15.48
2022-08-22T05:59:21.178Z,15.49
2022-08-22T06:04:29.598Z,15.48
2022-08-22T06:09:37.692Z,15.48
2022-08-22T06:14:45.413Z,15.49
2022-08-22T06:19:53.808Z,15.51
2022-08-22T06:25:03.779Z,15.53
2022-08-22T06:30:10.926Z,15.54
2022-08-22T06:35:18.486Z,15.58
2022-08-22T06:40:26.404Z,15.62
2022-08-22T06:45:34.411Z,15.69
2022-08-22T06:50:43.381Z,15.76
2022-08-22T06:55:52.496Z,15.85
2022-08-22T07:01:00.086Z,15.92
2022-08-22T07:06:08.725Z,16.02
2022-08-22T07:11:15.433Z,16.07
2022-08-22T07:16:23.444Z,16.04
2022-08-22T07:21:32.604Z,16.01
2022-08-22T07:26:39.664Z,15.99
2022-08-22T07:31:47.419Z,15.99
2022-08-22T07:36:55.766Z,15.98
2022-08-22T07:42:03.510Z,16.02
2022-08-22T07:47:11.618Z,16.04
2022-08-22T07:52:18.786Z,15.99
2022-08-22T07:57:28.346Z,15.96
2022-08-22T08:02:35.739Z,15.98
2022-08-22T08:07:43.964Z,15.96
2022-08-22T08:12:51.492Z,15.92
2022-08-22T08:17:57.316Z,15.96
2022-08-22T08:23:05.649Z,15.97
2022-08-22T08:28:14.167Z,15.98
2022-08-22T08:33:21.758Z,15.98
2022-08-22T08:38:28.942Z,15.96
2022-08-22T08:43:36.439Z,15.97
2022-08-22T08:48:44.340Z,15.96
2022-08-22T08:53:52.624Z,15.98
2022-08-22T08:59:00.055Z,16.12
2022-08-22T09:04:08.408Z,16.2
2022-08-22T09:09:16.376Z,16.28
2022-08-22T09:14:23.905Z,16.4
2022-08-22T09:19:32.085Z,16.46
2022-08-22T09:24:39.944Z,16.49
2022-08-22T09:29:47.669Z,16.52
2022-08-22T09:34:54.292Z,16.58
2022-08-22T09:40:02.071Z,16.61
2022-08-22T09:45:10.484Z,16.66
2022-08-22T09:50:18.009Z,16.75
2022-08-22T09:55:25.684Z,16.83
2022-08-22T10:00:34.134Z,16.94
2022-08-22T10:05:41.489Z,16.99
2022-08-22T10:10:49.177Z,17.01
2022-08-22T10:15:56.629Z,16.91
2022-08-22T10:21:04.534Z,17.03
2022-08-22T10:26:52.426Z,17.06
2022-08-22T10:32:00.213Z,17.06
2022-08-22T10:37:06.784Z,16.96
2022-08-22T10:42:14.622Z,16.76
2022-08-22T10:47:21.837Z,16.68
2022-08-22T10:52:29.862Z,16.62
2022-08-22T10:57:36.870Z,16.57
2022-08-22T11:02:44.085Z,16.56
2022-08-22T11:07:51.715Z,16.57
2022-08-22T11:12:58.964Z,16.64
2022-08-22T11:18:15.517Z,16.71
2022-08-22T11:23:23.097Z,16.68
2022-08-22T11:28:30.649Z,16.76
2022-08-22T11:33:39.115Z,16.9
2022-08-22T11:38:47.762Z,16.86
2022-08-22T11:43:56.777Z,16.86
2022-08-22T11:49:04.572Z,16.8
2022-08-22T11:54:12.484Z,16.86
2022-08-22T11:59:20.411Z,16.88
2022-08-22T12:04:28.246Z,16.88
2022-08-22T12:09:34.952Z,16.97
2022-08-22T12:14:43.191Z,16.98
2022-08-22T12:19:51.474Z,17.06
2022-08-22T12:25:00.075Z,17.18
2022-08-22T12:30:08.729Z,17.18
2022-08-22T12:35:15.450Z,17.23
2022-08-22T12:40:23.944Z,17.4
2022-08-22T12:45:31.031Z,17.33
2022-08-22T12:50:39.139Z,17.36
2022-08-22T12:55:46.149Z,17.28
2022-08-22T13:00:54.621Z,17.24
2022-08-22T13:06:03.615Z,17.18
2022-08-22T13:11:11.738Z,17.04
2022-08-22T13:16:19.835Z,17.0
2022-08-22T13:21:28.403Z,17.02
2022-08-22T13:26:37.528Z,17.03
2022-08-22T13:31:44.572Z,17.06
2022-08-22T13:36:52.719Z,17.06
2022-08-22T13:42:00.528Z,17.02
2022-08-22T13:47:08.171Z,17.07
2022-08-22T13:52:14.957Z,17.15
2022-08-22T13:57:23.289Z,17.15
2022-08-22T14:02:30.624Z,17.21
2022-08-22T14:07:37.798Z,17.25
2022-08-22T14:12:45.659Z,17.24
2022-08-22T14:17:54.084Z,17.23
2022-08-22T14:23:00.510Z,17.21
2022-08-22T14:28:09.678Z,17.15
2022-08-22T14:33:17.528Z,17.11
2022-08-22T14:38:24.979Z,17.07
2022-08-22T14:43:33.205Z,17.08
2022-08-22T14:48:41.004Z,17.06
2022-08-22T14:53:47.675Z,16.98
2022-08-22T14:58:54.940Z,16.9
2022-08-22T15:04:03.666Z,16.86
2022-08-22T15:09:10.088Z,16.94
2022-08-22T15:14:18.967Z,16.96
2022-08-22T15:19:26.667Z,17.02
2022-08-22T15:24:34.255Z,17.06
2022-08-22T15:29:42.490Z,17.09
2022-08-22T15:34:50.237Z,17.11
2022-08-22T15:39:57.679Z,17.16
2022-08-22T15:45:04.295Z,17.16
2022-08-22T15:50:11.419Z,17.12
2022-08-22T15:55:19.071Z,17.07
2022-08-22T16:00:27.595Z,16.94
2022-08-22T16:05:34.303Z,16.86
2022-08-22T16:10:41.496Z,16.78
2022-08-22T16:15:48.099Z,16.72
2022-08-22T16:20:56.703Z,16.66
2022-08-22T16:26:05.528Z,16.64
2022-08-22T16:31:19.443Z,16.62
2022-08-22T16:36:27.071Z,16.58
2022-08-22T16:41:33.852Z,16.52
2022-08-22T16:46:43.108Z,16.46
2022-08-22T16:51:49.920Z,16.43
2022-08-22T16:56:57.184Z,16.38
2022-08-22T17:02:04.473Z,16.29
2022-08-22T17:07:13.373Z,16.2
2022-08-22T17:12:20.738Z,16.15
2022-08-22T17:17:27.287Z,16.07
2022-08-22T17:22:35.316Z,15.99
2022-08-22T17:27:43.023Z,15.96
2022-08-22T17:32:50.139Z,15.94
2022-08-22T17:37:57.783Z,15.9
2022-08-22T17:43:06.329Z,15.86
2022-08-22T17:48:13.830Z,15.84
2022-08-22T17:53:21.326Z,15.84
2022-08-22T17:58:29.450Z,15.83
2022-08-22T18:03:37.290Z,15.82
2022-08-22T18:08:50.161Z,15.8
2022-08-22T18:13:56.894Z,15.79
2022-08-22T18:19:03.844Z,15.78
2022-08-22T18:24:11.129Z,15.74
2022-08-22T18:29:18.330Z,15.74
2022-08-22T18:34:25.522Z,15.76
2022-08-22T18:39:32.764Z,15.78
2022-08-22T18:44:41.045Z,15.79
2022-08-22T18:49:48.755Z,15.82
2022-08-22T18:54:56.880Z,15.82
2022-08-22T19:00:03.419Z,15.84
2022-08-22T19:05:12.059Z,15.84
2022-08-22T19:10:20.441Z,15.85
2022-08-22T19:15:26.970Z,15.83
2022-08-22T19:20:35.568Z,15.82
2022-08-22T19:25:43.266Z,15.8
2022-08-22T19:30:51.110Z,15.82
2022-08-22T19:35:58.332Z,15.82
2022-08-22T19:41:05.676Z,15.82
2022-08-22T19:46:13.568Z,15.8
2022-08-22T19:51:21.751Z,15.82
2022-08-22T19:56:29.234Z,15.8
2022-08-22T20:01:37.322Z,15.82
2022-08-22T20:06:45.507Z,15.8
2022-08-22T20:11:52.756Z,15.82
2022-08-22T20:17:01.174Z,15.8
2022-08-22T20:22:09.162Z,15.82
2022-08-22T20:27:17.185Z,15.82
2022-08-22T20:32:24.959Z,15.85
2022-08-22T20:37:32.887Z,15.86
2022-08-22T20:42:40.411Z,15.88
2022-08-22T20:47:48.866Z,15.88
2022-08-22T20:52:56.534Z,15.88
2022-08-22T20:58:03.783Z,15.82
2022-08-22T21:03:11.431Z,15.71
2022-08-22T21:08:19.145Z,15.64
2022-08-22T21:13:27.422Z,15.58
2022-08-22T21:18:36.083Z,15.54
2022-08-22T21:23:43.648Z,15.49
2022-08-22T21:28:51.420Z,15.43
2022-08-22T21:33:58.886Z,15.4
2022-08-22T21:39:07.260Z,15.38
2022-08-22T21:44:15.450Z,15.38
2022-08-22T21:49:22.124Z,15.36
2022-08-22T21:54:30.014Z,15.36
2022-08-22T21:59:38.294Z,15.38
2022-08-22T22:04:46.802Z,15.38
2022-08-22T22:09:54.772Z,15.38
2022-08-22T22:15:02.788Z,15.4
2022-08-22T22:20:09.813Z,15.42
2022-08-22T22:25:18.053Z,15.43
2022-08-22T22:30:26.332Z,15.46
2022-08-22T22:35:34.612Z,15.46
2022-08-22T22:40:43.862Z,15.46
2022-08-22T22:45:51.573Z,15.46
2022-08-22T22:50:58.803Z,15.46
2022-08-22T22:56:06.244Z,15.47
2022-08-22T23:01:14.065Z,15.47
2022-08-22T23:06:30.280Z,15.47
2022-08-22T23:11:37.627Z,15.46
2022-08-22T23:16:45.712Z,15.48
2022-08-22T23:21:53.539Z,15.47
2022-08-22T23:27:01.483Z,15.49
2022-08-22T23:32:08.595Z,15.51
2022-08-22T23:37:15.100Z,15.48
2022-08-22T23:42:23.022Z,15.46
2022-08-22T23:47:30.860Z,15.46
2022-08-22T23:52:38.008Z,15.43
2022-08-22T23:57:45.871Z,15.4
